Latest Weather Observations for Cape Borda

IDS60801

Issued at 9:05 am CDT Thursday 23 October 2014 (issued every 30 minutes, with the page automatically refreshed every 10 minutes)

About weather observations | Map of weather stations | Latest weather observations for SA | Other Formats
Station Details ID: 022823 Name: CAPE BORDA Lat: -35.75 Lon: 136.60 Height: 158.0 m
Data from the previous 72 hours. | See also: Recent months at Cape Borda
Date/Time
CDT
Temp
°C
App
Temp
°C
Dew
Point
Rel
Hum
%
Delta-T
°C
Wind Press
QNH
hPa
Press
MSL
hPa
Rain
since 9 am
mm
Dir
 
Spd
km/h
Gust
km/h
Spd
kts
Gust
kts
23/09:00am 14.2 10.7 11.0 81 1.7 ESE 20 32 11 17 1019.3 1019.3 0.0
23/08:30am 13.5 10.0 10.8 84 1.4 SE 20 30 11 16 1019.3 - 0.0
23/08:00am 13.1 8.8 10.6 85 1.3 ESE 24 35 13 19 1019.3 - 0.0
23/07:30am 12.7 9.8 11.0 89 0.9 SE 17 26 9 14 1019.1 - 0.0
23/07:00am 12.7 9.4 11.0 89 0.9 SE 19 28 10 15 1019.1 - 0.0
23/06:30am 12.6 9.1 10.9 89 0.9 SE 20 30 11 16 1019.3 - 0.0
23/06:00am 12.6 8.7 10.9 89 0.9 ESE 22 30 12 16 1018.9 1018.9 0.0
23/05:30am 12.5 9.0 11.0 90 0.8 ESE 20 28 11 15 1019.2 - 0.0
23/05:00am 12.5 10.4 11.2 92 0.7 ESE 13 19 7 10 1019.4 - 0.0
23/04:30am 12.4 8.5 10.9 90 0.8 SE 22 33 12 18 1019.1 - 0.0
23/04:00am 12.6 10.5 11.1 91 0.8 SSE 13 17 7 9 1019.3 - 0.0
23/03:30am 12.5 9.0 11.0 90 0.8 SE 20 30 11 16 1018.8 - 0.0
23/03:00am 12.6 8.4 11.1 91 0.8 SE 24 33 13 18 1019.3 1019.3 0.0
23/02:30am 12.4 9.2 11.3 93 0.6 SE 19 28 10 15 1019.9 - 0.0
23/02:00am 12.7 9.5 11.4 92 0.7 SSE 19 28 10 15 1020.5 - 0.0
23/01:30am 12.7 9.3 11.4 92 0.7 SSE 20 30 11 16 1021.1 - 0.0
23/01:00am 12.7 9.5 11.4 92 0.7 SSE 19 30 10 16 1021.5 - 0.0
23/12:30am 12.6 9.3 11.5 93 0.6 SSE 20 32 11 17 1021.5 - 0.0
23/12:00am 12.4 9.1 11.5 94 0.5 SSE 20 32 11 17 1021.5 1021.4 0.0
 
Date/Time
CDT
Temp
°C
App
Temp
°C
Dew
Point
Rel
Hum
%
Delta-T
°C
Wind Press
QNH
hPa
Press
MSL
hPa
Rain
since 9 am
mm
Dir
 
Spd
km/h
Gust
km/h
Spd
kts
Gust
kts
22/11:30pm 12.4 9.3 11.6 95 0.4 SSE 19 28 10 15 1021.8 - 0.0
22/11:00pm 12.3 9.2 11.7 96 0.3 SSE 19 30 10 16 1021.6 - 0.0
22/10:30pm 12.3 8.6 11.5 95 0.4 SSE 22 35 12 19 1021.6 - 0.0
22/10:00pm 12.7 9.1 11.8 94 0.5 SSE 22 32 12 17 1021.6 - 0.0
22/09:30pm 12.5 8.1 11.6 94 0.5 SSE 26 37 14 20 1021.4 - 0.0
22/09:00pm 12.8 9.2 11.7 93 0.6 SSE 22 33 12 18 1021.2 1021.1 0.0
22/08:30pm 13.0 9.7 11.7 92 0.7 SSE 20 33 11 18 1021.2 - 0.0
22/08:00pm 13.1 9.0 11.4 89 0.9 SSE 24 35 13 19 1020.6 - 0.0
22/07:30pm 13.2 8.7 11.5 89 0.9 SSE 26 41 14 22 1020.2 - 0.0
22/07:00pm 13.5 7.8 11.2 86 1.2 SSE 32 46 17 25 1020.0 - 0.0
22/06:30pm 14.1 8.4 11.3 83 1.5 SSE 32 43 17 23 1019.9 - 0.0
22/06:00pm 15.2 9.6 11.5 78 2.0 SSE 32 43 17 23 1019.5 1019.5 0.0
22/05:30pm 15.5 9.7 11.4 76 2.2 SSE 33 48 18 26 1019.3 - 0.0
22/05:00pm 16.9 11.4 12.0 73 2.7 SSE 32 43 17 23 1019.3 - 0.0
22/04:30pm 17.6 11.5 11.8 69 3.2 S 35 46 19 25 1019.2 - 0.0
22/04:00pm 17.4 11.3 11.8 69 3.1 S 35 52 19 28 1019.3 - 0.0
22/03:38pm 17.5 12.0 12.3 71 2.9 S 33 52 18 28 1019.4 - 0.0
22/03:30pm 17.8 11.9 12.4 70 3.0 S 35 48 19 26 1019.6 - 0.0
22/03:00pm 17.1 10.0 12.2 73 2.7 S 41 54 22 29 1019.4 1019.4 0.0
22/02:30pm 18.3 12.7 12.2 67 3.4 S 33 48 18 26 1019.5 - 0.0
22/02:00pm 17.8 12.2 12.2 70 3.1 S 33 46 18 25 1019.6 - 0.0
22/01:44pm 18.6 14.1 12.5 67 3.4 S 28 46 15 25 1019.6 - 0.0
22/01:30pm 18.1 12.6 12.0 67 3.4 S 32 44 17 24 1019.6 - 0.0
22/01:00pm 16.6 9.5 12.1 75 2.5 S 41 54 22 29 1019.3 - 0.0
22/12:30pm 16.1 8.7 12.5 79 2.0 S 43 57 23 31 1019.4 - 0.0
22/12:00pm 16.5 9.9 12.7 78 2.1 S 39 54 21 29 1019.3 1019.3 0.0
22/11:30am 15.3 8.3 12.4 83 1.6 S 41 54 22 29 1019.2 - 0.0
22/11:00am 14.2 6.8 12.6 90 0.9 S 43 57 23 31 1019.2 - 0.0
22/10:30am 13.7 7.0 12.4 92 0.7 S 39 54 21 29 1019.2 - 0.0
22/10:00am 14.0 7.7 12.3 89 0.9 S 37 54 20 29 1019.3 - 0.0
22/09:43am 15.0 9.2 12.6 85 1.3 S 35 54 19 29 1018.8 - 0.0
22/09:30am 14.9 8.3 12.5 85 1.3 S 39 52 21 28 1018.4 - 0.0
22/09:00am 15.5 9.3 12.8 84 1.5 S 37 52 20 28 1018.3 1018.3 0.0
22/08:30am 14.3 7.7 12.5 89 1.0 SSE 39 50 21 27 1018.2 - 0.0
22/08:01am 13.5 7.6 12.4 93 0.6 S 35 54 19 29 1018.1 - 0.0
22/08:00am 13.5 7.7 12.6 94 0.5 S 35 50 19 27 1018.1 - 0.0
22/07:30am 13.1 6.5 12.5 96 0.3 S 39 52 21 28 1017.9 - 0.0
22/07:00am 13.1 6.5 12.7 97 0.2 S 39 57 21 31 1017.5 - 0.0
22/06:58am 13.1 6.5 12.5 96 0.3 S 39 57 21 31 1017.5 - 0.0
22/06:30am 13.3 6.8 12.9 97 0.2 SSE 39 56 21 30 1017.5 - 0.0
22/06:00am 13.6 7.1 12.9 95 0.4 S 39 54 21 29 1017.1 1017.1 0.0
22/05:30am 13.7 7.2 13.0 96 0.4 S 39 48 21 26 1016.7 - 0.0
22/05:00am 14.0 8.2 12.7 92 0.7 S 35 46 19 25 1016.6 - 0.0
22/04:30am 14.1 8.3 12.6 91 0.8 S 35 48 19 26 1016.2 - 0.0
22/04:00am 14.6 8.3 12.2 85 1.3 S 37 48 20 26 1016.1 - 0.0
22/03:30am 15.6 9.0 11.5 76 2.2 S 37 50 20 27 1016.3 - 0.0
22/03:14am 16.5 9.9 10.1 66 3.4 S 35 54 19 29 1016.4 - 0.0
22/03:00am 17.5 11.0 9.1 58 4.4 S 33 44 18 24 1016.5 1016.5 0.0
22/02:30am 18.0 11.1 9.0 55 4.7 S 35 46 19 25 1016.5 - 0.0
22/02:00am 17.8 11.1 9.7 59 4.3 S 35 46 19 25 1017.0 - 0.0
22/01:30am 17.6 11.0 9.9 60 4.1 S 35 46 19 25 1017.1 - 0.0
22/01:00am 18.0 11.0 9.9 59 4.3 S 37 52 20 28 1016.6 - 0.0
22/12:30am 18.7 13.1 10.1 57 4.6 S 30 44 16 24 1017.1 - 0.0
22/12:03am 22.5 16.0 6.5 35 8.2 SSW 30 48 16 26 1017.2 - 0.0
22/12:00am 22.4 15.6 4.9 32 8.7 W 30 44 16 24 1017.1 1017.1 0.0
 
Date/Time
CDT
Temp
°C
App
Temp
°C
Dew
Point
Rel
Hum
%
Delta-T
°C
Wind Press
QNH
hPa
Press
MSL
hPa
Rain
since 9 am
mm
Dir
 
Spd
km/h
Gust
km/h
Spd
kts
Gust
kts
21/11:30pm 22.7 18.0 3.0 27 9.5 ESE 17 19 9 10 1016.7 - 0.0
21/11:00pm 22.8 17.2 3.5 28 9.4 ESE 22 30 12 16 1016.8 - 0.0
21/10:30pm 24.5 17.7 0.8 21 11.1 ESE 26 33 14 18 1017.7 - 0.0
21/10:00pm 21.1 14.8 5.8 37 7.7 SSE 28 35 15 19 1017.8 - 0.0
21/09:30pm 20.0 14.3 8.3 47 6.1 S 28 37 15 20 1018.0 - 0.0
21/09:00pm 20.0 13.9 9.8 52 5.5 SW 32 46 17 25 1018.2 1018.2 0.0
21/08:30pm 22.0 16.6 8.2 41 7.3 S 26 44 14 24 1017.0 - 0.0
21/08:25pm 21.6 16.1 9.1 44 6.7 S 28 44 15 24 1016.8 - 0.0
21/08:00pm 25.4 21.2 1.6 21 11.4 NE 13 15 7 8 1016.5 - 0.0
21/07:30pm 25.1 20.3 2.4 23 11.0 ENE 17 19 9 10 1016.0 - 0.0
21/07:00pm 24.9 20.7 3.7 25 10.5 ESE 15 22 8 12 1015.6 - 0.0
21/06:30pm 24.9 20.0 4.0 26 10.4 ENE 19 30 10 16 1016.5 - 0.0
21/06:00pm 26.1 21.3 2.6 21 11.5 ENE 17 24 9 13 1016.4 1016.4 0.0
21/05:30pm 27.5 22.5 1.1 18 12.7 ENE 17 22 9 12 1016.1 - 0.0
21/05:00pm 28.7 24.4 0.7 16 13.5 N 13 17 7 9 1016.4 - 0.0
21/04:30pm 28.4 23.0 1.2 17 13.2 NE 19 24 10 13 1016.4 - 0.0
21/04:00pm 28.1 22.8 2.1 18 12.8 NE 19 26 10 14 1016.6 - 0.0
21/03:30pm 28.5 22.8 2.9 19 12.8 ENE 22 30 12 16 1016.6 - 0.0
21/03:00pm 28.1 22.1 3.2 20 12.5 NE 24 33 13 18 1016.8 1016.8 0.0
21/02:30pm 29.4 23.3 3.0 18 13.3 NE 24 32 13 17 1017.3 - 0.0
21/02:00pm 29.0 22.5 2.9 18 13.1 NE 26 33 14 18 1017.4 - 0.0
21/01:30pm 27.8 21.6 4.3 22 12.0 NE 26 37 14 20 1017.9 - 0.0
21/01:00pm 26.8 20.6 4.3 23 11.4 NE 26 33 14 18 1018.1 - 0.0
21/12:30pm 27.3 21.5 4.3 23 11.7 NE 24 33 13 18 1018.6 - 0.0
21/12:00pm 27.7 21.8 4.0 22 12.0 NE 24 35 13 19 1018.7 1018.7 0.0
21/11:30am 27.1 20.5 4.2 23 11.6 NE 28 35 15 19 1018.8 - 0.0
21/11:00am 26.4 19.9 4.5 24 11.1 ENE 28 39 15 21 1019.0 - 0.0
21/10:30am 23.3 17.2 4.6 29 9.3 ENE 26 37 14 20 1019.0 - 0.0
21/10:00am 23.0 16.4 4.4 29 9.2 ENE 28 39 15 21 1019.0 - 0.0
21/09:30am 22.0 15.2 4.9 32 8.5 ENE 30 37 16 20 1019.0 - 0.0
21/09:00am 22.6 15.4 5.0 32 8.8 ENE 32 43 17 23 1018.9 1018.9 0.0
21/08:30am 22.1 15.3 5.0 32 8.5 ENE 30 41 16 22 1019.0 - 0.0
21/08:00am 21.9 14.5 4.1 31 8.7 ENE 32 46 17 25 1019.0 - 0.0
21/07:30am 21.7 14.3 4.1 31 8.6 ENE 32 43 17 23 1019.0 - 0.0
21/07:18am 21.8 14.4 4.2 31 8.6 ENE 32 50 17 27 1018.8 - 0.0
21/07:00am 22.2 14.5 3.4 29 9.1 ENE 33 46 18 25 1018.3 - 0.0
21/06:30am 22.3 14.2 3.2 28 9.2 ENE 35 48 19 26 1017.7 - 0.0
21/06:05am 22.5 14.7 2.9 27 9.4 ENE 33 52 18 28 1017.6 - 0.0
21/06:00am 22.5 14.7 2.9 27 9.4 ENE 33 48 18 26 1017.6 1017.6 0.0
21/05:30am 22.9 15.0 2.3 26 9.8 ENE 33 52 18 28 1017.3 - 0.0
21/05:27am 22.8 15.0 2.8 27 9.6 ENE 33 52 18 28 1017.3 - 0.0
21/05:00am 23.2 14.8 1.8 24 10.1 ENE 35 48 19 26 1017.2 - 0.0
21/04:30am 22.9 14.6 2.3 26 9.8 ENE 35 46 19 25 1017.1 - 0.0
21/04:15am 23.1 14.7 1.6 24 10.1 ENE 35 54 19 29 1017.2 - 0.0
21/04:00am 22.9 14.6 2.3 26 9.8 ENE 35 46 19 25 1017.3 - 0.0
21/03:30am 22.7 14.9 2.6 26 9.6 ENE 33 48 18 26 1017.6 - 0.0
21/03:00am 22.7 15.1 2.6 26 9.6 E 32 46 17 25 1017.7 1017.7 0.0
21/02:34am 23.0 15.1 2.1 25 9.9 ENE 33 52 18 28 1018.1 - 0.0
21/02:30am 23.2 14.9 2.2 25 10.0 ENE 35 52 19 28 1018.2 - 0.0
21/02:00am 23.4 15.4 1.9 24 10.2 E 33 48 18 26 1018.4 - 0.0
21/01:49am 23.7 15.7 1.4 23 10.5 E 33 54 18 29 1018.4 - 0.0
21/01:30am 23.2 15.3 2.5 25 9.9 E 33 46 18 25 1018.5 - 0.0
21/01:00am 23.5 15.1 1.7 24 10.3 E 35 46 19 25 1018.9 - 0.0
21/12:50am 23.5 15.6 2.0 24 10.2 E 33 52 18 28 1019.1 - 0.0
21/12:30am 23.5 15.8 2.4 25 10.1 E 32 46 17 25 1019.4 - 0.0
21/12:03am 23.6 15.9 2.2 24 10.2 E 32 54 17 29 1019.7 - 0.0
21/12:00am 23.6 15.9 2.2 24 10.2 E 32 46 17 25 1019.7 1019.7 0.0
 
Date/Time
CDT
Temp
°C
App
Temp
°C
Dew
Point
Rel
Hum
%
Delta-T
°C
Wind Press
QNH
hPa
Press
MSL
hPa
Rain
since 9 am
mm
Dir
 
Spd
km/h
Gust
km/h
Spd
kts
Gust
kts
20/11:50pm 22.4 15.7 3.4 28 9.2 E 28 48 15 26 1019.8 - 0.0
20/11:30pm 21.6 15.1 4.5 32 8.4 E 28 39 15 21 1020.0 - 0.0
20/11:00pm 21.7 15.1 4.3 32 8.5 E 28 39 15 21 1020.2 - 0.0
20/10:30pm 19.9 13.5 5.3 38 7.2 E 28 37 15 20 1020.4 - 0.0
20/10:00pm 20.1 13.7 5.0 37 7.4 E 28 35 15 19 1020.6 - 0.0
20/09:30pm 19.6 13.4 6.2 41 6.7 E 28 35 15 19 1020.5 - 0.0
20/09:00pm 18.5 12.9 7.3 48 5.7 ESE 26 35 14 19 1020.3 1020.3 0.0
20/08:30pm 18.1 12.6 7.7 50 5.3 ESE 26 33 14 18 1020.0 - 0.0
20/08:00pm 18.4 13.3 9.1 54 4.9 ESE 26 33 14 18 1020.1 - 0.0
20/07:30pm 19.6 15.5 10.1 54 5.1 ESE 22 28 12 15 1020.0 - 0.0
20/07:00pm 22.6 19.5 10.4 46 6.7 E 17 20 9 11 1020.0 - 0.0
20/06:30pm 25.1 22.1 9.4 37 8.6 E 15 20 8 11 1020.0 - 0.0
20/06:00pm 25.9 23.3 9.4 35 9.1 E 13 19 7 10 1020.0 1020.0 0.0
20/05:30pm 25.0 21.8 10.0 38 8.3 ENE 17 22 9 12 1020.1 - 0.0
20/05:00pm 24.9 21.9 10.6 40 8.0 ENE 17 24 9 13 1020.1 - 0.0
20/04:30pm 25.3 21.5 9.7 37 8.6 ENE 20 26 11 14 1020.5 - 0.0
20/04:00pm 25.1 21.2 9.4 37 8.6 ENE 20 28 11 15 1020.8 - 0.0
20/03:30pm 26.0 22.3 10.0 36 8.9 ENE 20 26 11 14 1021.0 - 0.0
20/03:00pm 24.9 21.0 9.6 38 8.4 ENE 20 28 11 15 1021.2 1021.1 0.0
20/02:30pm 25.5 21.6 9.3 36 8.9 ENE 20 26 11 14 1021.7 - 0.0
20/02:00pm 25.1 21.7 9.2 36 8.7 ENE 17 24 9 13 1022.1 - 0.0
20/01:30pm 24.3 20.9 9.0 37 8.3 ENE 17 24 9 13 1022.5 - 0.0
20/01:00pm 24.4 20.7 8.1 35 8.7 ENE 17 22 9 12 1022.9 - 0.0
20/12:30pm 24.1 19.9 8.4 36 8.4 ENE 20 26 11 14 1023.1 - 0.0
20/12:00pm 23.6 19.6 9.2 40 7.8 E 20 30 11 16 1023.4 1023.4 0.0
20/11:30am 21.6 17.6 9.0 44 6.7 E 20 32 11 17 1023.9 - 0.0
20/11:00am 19.7 16.1 10.7 56 4.9 ESE 20 30 11 16 1024.2 - 0.0
20/10:30am 18.5 14.9 10.7 60 4.2 ESE 20 28 11 15 1024.3 - 0.0
20/10:00am 16.8 13.7 10.4 66 3.4 ESE 17 28 9 15 1024.4 - 0.0
20/09:30am 16.3 11.4 10.0 66 3.3 ESE 26 41 14 22 1023.7 - 0.0

Other Formats:

Comma delimited format used in spreadsheet applications
http://www.bom.gov.au/fwo/IDS60801/IDS60801.95805.axf

JavaScript Object Notation format (JSON) in row-major order
http://www.bom.gov.au/fwo/IDS60801/IDS60801.95805.json